createdAt,value
2022-08-17T00:03:11.042Z,94478.34
2022-08-17T00:06:24.935Z,94477.56
2022-08-17T00:09:33.325Z,94471.78
2022-08-17T00:12:44.529Z,94473.78
2022-08-17T00:16:05.869Z,94473.41
2022-08-17T00:19:21.671Z,94473.34
2022-08-17T00:22:35.207Z,94476.41
2022-08-17T00:25:47.302Z,94480.97
2022-08-17T00:28:56.072Z,94471.13
2022-08-17T00:33:11.612Z,94466.91
2022-08-17T00:35:35.661Z,94464.56
2022-08-17T00:38:44.615Z,94455.72
2022-08-17T00:41:53.970Z,94448.84
2022-08-17T00:45:04.389Z,94444.22
2022-08-17T00:48:29.357Z,94441.91
2022-08-17T00:51:47.391Z,94435.81
2022-08-17T00:54:57.435Z,94440.06
2022-08-17T00:58:07.760Z,94434.28
2022-08-17T01:01:21.526Z,94427.78
2022-08-17T01:04:33.761Z,94422.38
2022-08-17T01:07:44.559Z,94422.38
2022-08-17T01:10:58.690Z,94428.53
2022-08-17T01:14:11.272Z,94433.09
2022-08-17T01:17:19.525Z,94437.28
2022-08-17T01:20:28.304Z,94430.78
2022-08-17T01:23:38.486Z,94431.97
2022-08-17T01:26:48.446Z,94436.94
2022-08-17T01:30:02.995Z,94433.91
2022-08-17T01:33:12.781Z,94434.63
2022-08-17T01:36:21.454Z,94433.41
2022-08-17T01:39:38.484Z,94433.84
2022-08-17T01:42:54.073Z,94443.41
2022-08-17T01:46:04.284Z,94435.00
2022-08-17T01:49:14.003Z,94432.72
2022-08-17T01:52:23.871Z,94433.03
2022-08-17T01:55:42.334Z,94426.88
2022-08-17T01:58:50.560Z,94436.69
2022-08-17T02:01:59.245Z,94441.91
2022-08-17T02:05:09.201Z,94424.81
2022-08-17T02:08:20.387Z,94429.72
2022-08-17T02:11:30.005Z,94418.59
2022-08-17T02:14:38.653Z,94410.28
2022-08-17T02:17:46.838Z,94415.59
2022-08-17T02:21:03.642Z,94416.47
2022-08-17T02:24:58.445Z,94421.72
2022-08-17T02:27:48.666Z,94421.66
2022-08-17T02:31:00.627Z,94416.63
2022-08-17T02:34:10.888Z,94423.06
2022-08-17T02:37:19.710Z,94419.25
2022-08-17T02:40:36.213Z,94410.34
2022-08-17T02:44:02.437Z,94407.78
2022-08-17T02:47:12.221Z,94405.16
2022-08-17T02:50:25.037Z,94395.94
2022-08-17T02:53:35.854Z,94407.47
2022-08-17T02:56:44.670Z,94405.13
2022-08-17T02:59:54.205Z,94399.75
2022-08-17T03:03:04.355Z,94393.63
2022-08-17T03:06:12.788Z,94393.59
2022-08-17T03:09:21.365Z,94383.34
2022-08-17T03:12:34.152Z,94377.59
2022-08-17T03:15:46.229Z,94386.28
2022-08-17T03:18:55.403Z,94382.06
2022-08-17T03:22:35.951Z,94383.13
2022-08-17T03:25:41.299Z,94376.25
2022-08-17T03:28:51.893Z,94376.25
2022-08-17T03:32:02.150Z,94388.84
2022-08-17T03:35:12.241Z,94394.88
2022-08-17T03:38:22.027Z,94398.03
2022-08-17T03:41:31.568Z,94403.47
2022-08-17T03:44:39.783Z,94412.34
2022-08-17T03:48:06.961Z,94406.84
2022-08-17T03:51:39.251Z,94407.69
2022-08-17T03:55:04.964Z,94410.38
2022-08-17T03:58:13.292Z,94410.50
2022-08-17T04:01:23.358Z,94412.03
2022-08-17T04:04:33.051Z,94416.69
2022-08-17T04:07:41.716Z,94424.69
2022-08-17T04:10:50.434Z,94415.22
2022-08-17T04:13:59.212Z,94425.97
2022-08-17T04:17:07.674Z,94425.63
2022-08-17T04:20:21.746Z,94445.06
2022-08-17T04:23:33.696Z,94437.69
2022-08-17T04:26:53.914Z,94436.59
2022-08-17T04:30:03.223Z,94424.09
2022-08-17T04:33:15.761Z,94421.09
2022-08-17T04:36:26.981Z,94418.50
2022-08-17T04:39:35.205Z,94421.25
2022-08-17T04:42:43.052Z,94423.22
2022-08-17T04:45:55.383Z,94430.19
2022-08-17T04:49:09.483Z,94419.63
2022-08-17T04:52:29.728Z,94421.25
2022-08-17T04:55:47.523Z,94427.78
2022-08-17T04:58:59.515Z,94439.28
2022-08-17T05:02:07.652Z,94423.63
2022-08-17T05:05:20.919Z,94420.66
2022-08-17T05:08:30.959Z,94427.28
2022-08-17T05:11:40.848Z,94423.91
2022-08-17T05:14:53.261Z,94432.03
2022-08-17T05:18:01.676Z,94427.84
2022-08-17T05:21:10.349Z,94431.38
2022-08-17T05:24:38.537Z,94425.34
2022-08-17T05:27:48.027Z,94433.81
2022-08-17T05:31:00.406Z,94424.28
2022-08-17T05:34:08.807Z,94431.56
2022-08-17T05:37:16.918Z,94434.69
2022-08-17T05:40:27.522Z,94428.66
2022-08-17T05:43:43.771Z,94419.50
2022-08-17T05:46:54.847Z,94420.66
2022-08-17T05:50:04.145Z,94415.31
2022-08-17T05:53:31.732Z,94422.97
2022-08-17T05:57:11.617Z,94419.53
2022-08-17T06:00:30.140Z,94422.22
2022-08-17T06:03:58.607Z,94419.13
2022-08-17T06:07:22.145Z,94410.22
2022-08-17T06:10:42.778Z,94418.06
2022-08-17T06:14:15.810Z,94426.88
2022-08-17T06:17:28.146Z,94422.22
2022-08-17T06:20:47.402Z,94424.22
2022-08-17T06:24:03.721Z,94424.97
2022-08-17T06:27:24.479Z,94428.00
2022-08-17T06:30:59.531Z,94431.25
2022-08-17T06:34:13.330Z,94437.75
2022-08-17T06:37:40.781Z,94438.84
2022-08-17T06:41:04.577Z,94450.53
2022-08-17T06:44:43.169Z,94449.03
2022-08-17T06:48:03.897Z,94454.03
2022-08-17T06:51:27.682Z,94452.97
2022-08-17T06:54:51.399Z,94461.94
2022-08-17T06:58:15.872Z,94457.56
2022-08-17T07:01:32.136Z,94454.84
2022-08-17T07:04:44.289Z,94461.94
2022-08-17T07:08:03.521Z,94458.44
2022-08-17T07:11:17.247Z,94468.81
2022-08-17T07:14:36.896Z,94468.88
2022-08-17T07:17:57.795Z,94467.19
2022-08-17T07:21:22.949Z,94472.75
2022-08-17T07:24:45.219Z,94475.03
2022-08-17T07:27:57.896Z,94476.31
2022-08-17T07:31:06.959Z,94476.19
2022-08-17T07:34:15.823Z,94490.06
2022-08-17T07:37:25.593Z,94491.19
2022-08-17T07:40:41.523Z,94495.81
2022-08-17T07:43:52.919Z,94497.59
2022-08-17T07:47:19.288Z,94484.03
2022-08-17T07:50:31.475Z,94483.63
2022-08-17T07:53:41.609Z,94492.09
2022-08-17T07:56:53.396Z,94498.09
2022-08-17T08:00:19.748Z,94493.50
2022-08-17T08:03:43.898Z,94488.72
2022-08-17T08:06:54.739Z,94499.94
2022-08-17T08:10:11.937Z,94502.06
2022-08-17T08:13:26.152Z,94500.31
2022-08-17T08:16:34.526Z,94500.50
2022-08-17T08:19:43.323Z,94475.25
2022-08-17T08:23:08.617Z,94487.75
2022-08-17T08:26:28.756Z,94490.03
2022-08-17T08:29:55.138Z,94495.41
2022-08-17T08:33:31.020Z,94499.53
2022-08-17T08:37:17.603Z,94479.53
2022-08-17T08:40:51.249Z,94468.94
2022-08-17T08:44:22.059Z,94478.88
2022-08-17T08:48:52.923Z,94477.19
2022-08-17T08:51:56.354Z,94491.19
2022-08-17T08:55:17.065Z,94480.53
2022-08-17T08:58:42.032Z,94473.91
2022-08-17T09:02:09.134Z,94468.28
2022-08-17T09:05:39.340Z,94467.97
2022-08-17T09:09:16.103Z,94473.44
2022-08-17T09:12:40.141Z,94476.63
2022-08-17T09:15:57.694Z,94489.97
2022-08-17T09:19:15.932Z,94477.22
2022-08-17T09:22:34.407Z,94475.84
2022-08-17T09:25:52.135Z,94473.53
2022-08-17T09:29:07.443Z,94461.84
2022-08-17T09:32:21.498Z,94463.72
2022-08-17T09:35:39.544Z,94471.34
2022-08-17T09:39:01.677Z,94479.81
2022-08-17T09:42:22.757Z,94480.28
2022-08-17T09:45:39.201Z,94476.59
2022-08-17T09:48:57.787Z,94477.69
2022-08-17T09:52:20.234Z,94472.91
2022-08-17T09:55:46.356Z,94465.38
2022-08-17T09:59:28.424Z,94468.19
2022-08-17T10:03:09.706Z,94474.81
2022-08-17T10:06:26.176Z,94469.84
2022-08-17T10:09:56.452Z,94485.53
2022-08-17T10:13:15.779Z,94491.41
2022-08-17T10:16:38.973Z,94485.19
2022-08-17T10:20:01.543Z,94481.25
2022-08-17T10:23:48.278Z,94473.94
2022-08-17T10:27:02.791Z,94463.66
2022-08-17T10:30:17.895Z,94459.03
2022-08-17T10:33:41.952Z,94465.28
2022-08-17T10:37:00.964Z,94457.84
2022-08-17T10:40:32.471Z,94459.53
2022-08-17T10:44:37.934Z,94458.53
2022-08-17T10:48:06.167Z,94460.16
2022-08-17T10:51:39.249Z,94467.88
2022-08-17T10:54:50.416Z,94472.00
2022-08-17T10:58:24.495Z,94473.44
2022-08-17T11:02:16.067Z,94482.72
2022-08-17T11:05:53.927Z,94479.59
2022-08-17T11:09:32.194Z,94472.78
2022-08-17T11:12:55.973Z,94468.34
2022-08-17T11:16:30.035Z,94472.00
2022-08-17T11:20:08.575Z,94462.78
2022-08-17T11:23:50.308Z,94477.22
2022-08-17T11:27:26.819Z,94463.09
2022-08-17T11:30:48.653Z,94459.06
2022-08-17T11:34:04.462Z,94458.31
2022-08-17T11:37:47.772Z,94458.31
2022-08-17T11:41:20.829Z,94450.94
2022-08-17T11:44:48.160Z,94455.63
2022-08-17T11:48:28.416Z,94448.34
2022-08-17T11:52:16.309Z,94453.06
2022-08-17T11:56:04.577Z,94466.56
2022-08-17T12:00:10.644Z,94462.56
2022-08-17T12:03:54.342Z,94470.38
2022-08-17T12:07:14.696Z,94466.97
2022-08-17T12:10:34.659Z,94470.88
2022-08-17T12:13:50.884Z,94480.44
2022-08-17T12:17:09.202Z,94474.06
2022-08-17T12:20:28.031Z,94473.34
2022-08-17T12:23:50.242Z,94465.56
2022-08-17T12:27:02.860Z,94464.19
2022-08-17T12:30:15.664Z,94465.00
2022-08-17T12:33:28.913Z,94453.69
2022-08-17T12:36:42.410Z,94458.09
2022-08-17T12:40:00.038Z,94443.38
2022-08-17T12:43:25.162Z,94453.31
2022-08-17T12:46:53.085Z,94448.53
2022-08-17T12:50:29.655Z,94439.91
2022-08-17T12:53:45.548Z,94441.59
2022-08-17T12:56:54.901Z,94439.53
2022-08-17T13:00:15.790Z,94442.22
2022-08-17T13:03:36.346Z,94434.16
2022-08-17T13:06:52.356Z,94433.91
2022-08-17T13:10:21.463Z,94423.22
2022-08-17T13:13:35.406Z,94435.16
2022-08-17T13:16:53.627Z,94425.09
2022-08-17T13:20:03.635Z,94430.06
2022-08-17T13:23:21.919Z,94424.88
2022-08-17T13:26:38.965Z,94436.69
2022-08-17T13:29:55.832Z,94424.63
2022-08-17T13:33:43.748Z,94420.31
2022-08-17T13:37:31.101Z,94426.41
2022-08-17T13:40:50.293Z,94422.34
2022-08-17T13:44:00.469Z,94419.44
2022-08-17T13:47:19.896Z,94416.94
2022-08-17T13:50:28.451Z,94429.91
2022-08-17T13:54:00.182Z,94431.06
2022-08-17T13:57:22.528Z,94418.38
2022-08-17T14:00:37.375Z,94411.28
2022-08-17T14:03:45.978Z,94411.75
2022-08-17T14:07:24.424Z,94399.19
2022-08-17T14:10:32.749Z,94402.84
2022-08-17T14:13:44.368Z,94397.28
2022-08-17T14:16:55.547Z,94390.81
2022-08-17T14:20:06.503Z,94381.31
2022-08-17T14:23:16.205Z,94377.19
2022-08-17T14:26:25.245Z,94377.91
2022-08-17T14:29:35.188Z,94369.63
2022-08-17T14:32:48.512Z,94368.16
2022-08-17T14:35:57.683Z,94372.00
2022-08-17T14:39:06.891Z,94356.09
2022-08-17T14:42:17.604Z,94349.66
2022-08-17T14:45:32.730Z,94338.78
2022-08-17T14:48:44.592Z,94351.00
2022-08-17T14:51:54.006Z,94357.88
2022-08-17T14:55:02.687Z,94370.44
2022-08-17T14:58:11.450Z,94359.47
2022-08-17T15:01:24.688Z,94351.16
2022-08-17T15:04:34.976Z,94356.94
2022-08-17T15:07:44.497Z,94343.41
2022-08-17T15:10:54.515Z,94347.94
2022-08-17T15:14:03.453Z,94351.84
2022-08-17T15:17:12.212Z,94369.06
2022-08-17T15:20:26.537Z,94364.00
2022-08-17T15:23:35.042Z,94359.72
2022-08-17T15:26:45.032Z,94368.50
2022-08-17T15:29:53.417Z,94369.75
2022-08-17T15:33:03.305Z,94372.19
2022-08-17T15:36:13.706Z,94375.41
2022-08-17T15:39:22.355Z,94385.78
2022-08-17T15:42:31.014Z,94393.84
2022-08-17T15:45:40.862Z,94387.69
2022-08-17T15:48:54.774Z,94373.97
2022-08-17T15:52:19.158Z,94359.78
2022-08-17T15:55:30.508Z,94372.44
2022-08-17T15:58:42.233Z,94379.56
2022-08-17T16:03:14.149Z,94377.63
2022-08-17T16:05:25.188Z,94380.13
2022-08-17T16:08:36.088Z,94391.25
2022-08-17T16:11:45.984Z,94388.94
2022-08-17T16:15:03.570Z,94384.41
2022-08-17T16:18:12.403Z,94386.16
2022-08-17T16:21:27.132Z,94378.91
2022-08-17T16:24:44.615Z,94374.84
2022-08-17T16:27:55.652Z,94377.28
2022-08-17T16:31:05.852Z,94375.09
2022-08-17T16:34:19.065Z,94370.47
2022-08-17T16:37:29.660Z,94355.47
2022-08-17T16:40:42.656Z,94353.84
2022-08-17T16:43:51.573Z,94358.50
2022-08-17T16:47:02.234Z,94358.75
2022-08-17T16:50:15.729Z,94358.00
2022-08-17T16:53:24.340Z,94348.56
2022-08-17T16:56:35.201Z,94353.28
2022-08-17T16:59:47.946Z,94350.41
2022-08-17T17:02:58.650Z,94359.75
2022-08-17T17:06:26.064Z,94362.97
2022-08-17T17:09:39.242Z,94351.84
2022-08-17T17:13:03.791Z,94346.94
2022-08-17T17:16:23.992Z,94334.09
2022-08-17T17:19:41.286Z,94342.81
2022-08-17T17:23:05.363Z,94333.44
2022-08-17T17:26:40.277Z,94334.31
2022-08-17T17:30:08.726Z,94326.00
2022-08-17T17:33:23.373Z,94322.34
2022-08-17T17:36:45.704Z,94330.53
2022-08-17T17:40:01.258Z,94327.31
2022-08-17T17:43:37.829Z,94328.06
2022-08-17T17:46:54.435Z,94324.13
2022-08-17T17:50:07.337Z,94332.00
2022-08-17T17:53:35.271Z,94336.47
2022-08-17T17:57:15.744Z,94326.22
2022-08-17T18:00:29.106Z,94335.34
2022-08-17T18:04:01.408Z,94323.25
2022-08-17T18:07:27.339Z,94311.88
2022-08-17T18:10:51.086Z,94306.41
2022-08-17T18:14:16.053Z,94302.81
2022-08-17T18:17:24.595Z,94305.50
2022-08-17T18:20:43.436Z,94304.06
2022-08-17T18:23:59.278Z,94304.66
2022-08-17T18:27:26.473Z,94311.41
2022-08-17T18:30:34.850Z,94311.97
2022-08-17T18:33:46.082Z,94310.38
2022-08-17T18:36:58.011Z,94312.44
2022-08-17T18:40:38.141Z,94317.88
2022-08-17T18:44:00.779Z,94321.53
2022-08-17T18:47:16.652Z,94314.91
2022-08-17T18:50:29.531Z,94306.88
2022-08-17T18:53:42.449Z,94297.19
2022-08-17T18:56:56.072Z,94298.84
2022-08-17T19:00:14.478Z,94297.75
2022-08-17T19:03:27.533Z,94297.88
2022-08-17T19:06:36.710Z,94300.53
2022-08-17T19:09:55.192Z,94306.06
2022-08-17T19:13:12.440Z,94301.94
2022-08-17T19:16:30.697Z,94288.69
2022-08-17T19:19:53.351Z,94301.16
2022-08-17T19:23:16.569Z,94311.66
2022-08-17T19:26:51.308Z,94318.59
2022-08-17T19:30:08.375Z,94336.97
2022-08-17T19:33:17.612Z,94344.25
2022-08-17T19:36:44.113Z,94347.50
2022-08-17T19:40:08.059Z,94351.91
2022-08-17T19:43:31.316Z,94356.16
2022-08-17T19:46:56.350Z,94352.00
2022-08-17T19:50:22.249Z,94353.63
2022-08-17T19:54:04.342Z,94350.41
2022-08-17T19:57:21.024Z,94343.03
2022-08-17T20:00:33.460Z,94336.84
2022-08-17T20:03:54.989Z,94334.78
2022-08-17T20:07:11.860Z,94336.63
2022-08-17T20:10:33.573Z,94336.63
2022-08-17T20:13:49.008Z,94337.59
2022-08-17T20:17:02.632Z,94344.56
2022-08-17T20:20:31.421Z,94339.13
2022-08-17T20:23:53.922Z,94338.03
2022-08-17T20:27:17.199Z,94338.22
2022-08-17T20:30:37.497Z,94339.31
2022-08-17T20:33:47.320Z,94331.19
2022-08-17T20:37:02.947Z,94329.13
2022-08-17T20:40:27.369Z,94316.75
2022-08-17T20:44:04.024Z,94309.16
2022-08-17T20:47:27.181Z,94313.28
2022-08-17T20:50:43.529Z,94305.25
2022-08-17T20:54:07.585Z,94299.16
2022-08-17T20:57:48.463Z,94300.78
2022-08-17T21:01:14.187Z,94306.84
2022-08-17T21:04:47.441Z,94293.06
2022-08-17T21:08:02.242Z,94296.63
2022-08-17T21:12:03.963Z,94304.88
2022-08-17T21:15:31.475Z,94303.84
2022-08-17T21:18:48.072Z,94297.34
2022-08-17T21:22:16.928Z,94295.41
2022-08-17T21:25:50.390Z,94300.91
2022-08-17T21:29:29.749Z,94290.94
2022-08-17T21:32:43.794Z,94300.50
2022-08-17T21:35:58.755Z,94293.53
2022-08-17T21:39:14.050Z,94290.75
2022-08-17T21:42:29.821Z,94302.00
2022-08-17T21:45:42.433Z,94292.28
2022-08-17T21:48:54.401Z,94300.22
2022-08-17T21:52:03.033Z,94300.53
2022-08-17T21:55:23.058Z,94301.72
2022-08-17T21:58:35.382Z,94309.84
2022-08-17T22:01:44.383Z,94306.81
2022-08-17T22:05:01.735Z,94298.78
2022-08-17T22:08:19.887Z,94297.59
2022-08-17T22:11:28.484Z,94302.16
2022-08-17T22:14:52.798Z,94300.22
2022-08-17T22:18:04.906Z,94300.09
2022-08-17T22:21:13.529Z,94308.03
2022-08-17T22:24:24.917Z,94312.06
2022-08-17T22:27:54.323Z,94316.47
2022-08-17T22:31:06.152Z,94319.19
2022-08-17T22:34:17.285Z,94327.81
2022-08-17T22:37:30.146Z,94344.16
2022-08-17T22:40:38.357Z,94377.13
2022-08-17T22:43:46.873Z,94408.97
2022-08-17T22:47:06.666Z,94430.84
2022-08-17T22:50:25.633Z,94423.13
2022-08-17T22:53:53.788Z,94443.44
2022-08-17T22:57:23.253Z,94449.84
2022-08-17T23:00:38.864Z,94462.16
2022-08-17T23:03:57.728Z,94479.16
2022-08-17T23:07:07.303Z,94487.97
2022-08-17T23:10:20.930Z,94498.56
2022-08-17T23:13:31.951Z,94511.50
2022-08-17T23:16:42.509Z,94518.72
2022-08-17T23:19:52.020Z,94519.56
2022-08-17T23:23:00.694Z,94521.69
2022-08-17T23:26:10.394Z,94525.94
2022-08-17T23:29:21.270Z,94528.53
2022-08-17T23:32:29.497Z,94539.84
2022-08-17T23:35:41.004Z,94550.41
2022-08-17T23:38:49.357Z,94573.19
2022-08-17T23:41:59.236Z,94586.72
2022-08-17T23:45:09.347Z,94602.78
2022-08-17T23:48:35.115Z,94603.16
2022-08-17T23:51:47.721Z,94600.88
2022-08-17T23:54:55.858Z,94608.19
2022-08-17T23:58:06.011Z,94599.44
